createdAt,value
2023-02-02T00:00:18.505Z,7.69
2023-02-02T00:03:04.327Z,7.10
2023-02-02T00:05:50.171Z,6.91
2023-02-02T00:08:38.133Z,7.15
2023-02-02T00:11:24.035Z,7.22
2023-02-02T00:14:09.989Z,7.34
2023-02-02T00:16:55.852Z,7.41
2023-02-02T00:19:41.725Z,7.46
2023-02-02T00:22:27.518Z,7.41
2023-02-02T00:25:13.291Z,7.27
2023-02-02T00:27:59.197Z,7.19
2023-02-02T00:30:45.190Z,7.28
2023-02-02T00:33:30.972Z,7.38
2023-02-02T00:36:16.831Z,7.32
2023-02-02T00:39:02.724Z,7.44
2023-02-02T00:41:48.752Z,7.48
2023-02-02T00:44:34.529Z,7.17
2023-02-02T00:47:20.301Z,7.20
2023-02-02T00:50:06.303Z,7.33
2023-02-02T00:52:52.046Z,7.42
2023-02-02T00:55:37.884Z,7.51
2023-02-02T00:58:23.713Z,7.21
2023-02-02T01:01:09.436Z,7.11
2023-02-02T01:03:55.398Z,6.81
2023-02-02T01:06:41.280Z,7.00
2023-02-02T01:09:27.162Z,6.97
2023-02-02T01:12:13.073Z,6.70
2023-02-02T01:14:58.916Z,6.80
2023-02-02T01:17:44.851Z,6.91
2023-02-02T01:20:30.792Z,7.06
2023-02-02T01:23:16.754Z,7.07
2023-02-02T01:26:02.610Z,6.96
2023-02-02T01:28:48.422Z,6.86
2023-02-02T01:31:34.363Z,6.55
2023-02-02T01:34:20.388Z,6.59
2023-02-02T01:37:06.203Z,6.46
2023-02-02T01:39:52.082Z,6.67
2023-02-02T01:42:37.938Z,6.64
2023-02-02T01:45:24.144Z,6.65
2023-02-02T01:48:10.240Z,6.56
2023-02-02T01:50:56.015Z,6.79
2023-02-02T01:53:41.817Z,6.75
2023-02-02T01:56:27.636Z,6.80
2023-02-02T01:59:13.601Z,6.69
2023-02-02T02:01:59.515Z,6.55
2023-02-02T02:04:45.411Z,6.47
2023-02-02T02:07:31.147Z,6.43
2023-02-02T02:10:17.051Z,6.37
2023-02-02T02:13:02.828Z,6.40
2023-02-02T02:15:48.737Z,6.38
2023-02-02T02:18:34.677Z,6.28
2023-02-02T02:21:20.479Z,6.32
2023-02-02T02:24:06.593Z,6.50
2023-02-02T02:26:52.494Z,6.27
2023-02-02T02:29:38.276Z,6.42
2023-02-02T02:32:24.089Z,6.53
2023-02-02T02:35:09.978Z,6.39
2023-02-02T02:37:55.947Z,5.98
2023-02-02T02:40:41.821Z,6.29
2023-02-02T02:43:27.716Z,6.26
2023-02-02T02:46:13.504Z,6.47
2023-02-02T02:48:59.307Z,6.44
2023-02-02T02:51:45.206Z,6.69
2023-02-02T02:54:31.598Z,6.79
2023-02-02T02:57:17.447Z,6.79
2023-02-02T03:00:03.391Z,6.68
2023-02-02T03:02:49.348Z,6.76
2023-02-02T03:05:35.411Z,7.02
2023-02-02T03:08:23.271Z,7.08
2023-02-02T03:11:09.208Z,6.89
2023-02-02T03:13:56.001Z,7.03
2023-02-02T03:16:42.229Z,6.79
2023-02-02T03:19:28.028Z,6.92
2023-02-02T03:22:15.894Z,6.97
2023-02-02T03:25:01.886Z,6.78
2023-02-02T03:27:47.677Z,6.79
2023-02-02T03:30:33.532Z,6.74
2023-02-02T03:33:19.387Z,6.83
2023-02-02T03:36:05.127Z,6.97
2023-02-02T03:38:51.060Z,7.02
2023-02-02T03:41:36.925Z,7.06
2023-02-02T03:44:22.842Z,7.21
2023-02-02T03:47:08.764Z,7.29
2023-02-02T03:49:54.622Z,7.29
2023-02-02T03:52:40.557Z,7.40
2023-02-02T03:55:26.686Z,7.51
2023-02-02T03:58:12.620Z,7.55
2023-02-02T04:00:58.562Z,7.68
2023-02-02T04:03:44.336Z,7.68
2023-02-02T04:06:30.129Z,7.68
2023-02-02T04:09:15.955Z,6.96
2023-02-02T04:12:01.802Z,6.48
2023-02-02T04:14:47.629Z,6.33
2023-02-02T04:17:33.490Z,5.46
2023-02-02T04:20:19.240Z,5.79
2023-02-02T04:23:05.118Z,5.98
2023-02-02T04:25:51.025Z,6.02
2023-02-02T04:28:37.010Z,6.26
2023-02-02T04:31:23.067Z,6.34
2023-02-02T04:34:08.776Z,6.32
2023-02-02T04:36:54.616Z,6.50
2023-02-02T04:39:40.519Z,6.56
2023-02-02T04:42:26.443Z,6.80
2023-02-02T04:45:12.351Z,6.92
2023-02-02T04:47:58.108Z,6.93
2023-02-02T04:50:44.029Z,7.00
2023-02-02T04:53:30.017Z,7.14
2023-02-02T04:56:15.834Z,6.95
2023-02-02T04:59:01.766Z,7.02
2023-02-02T05:01:47.740Z,6.83
2023-02-02T05:04:33.797Z,6.15
2023-02-02T05:07:19.754Z,6.08
2023-02-02T05:10:05.496Z,6.19
2023-02-02T05:12:51.336Z,5.97
2023-02-02T05:15:37.212Z,5.92
2023-02-02T05:18:23.055Z,6.41
2023-02-02T05:21:08.953Z,6.40
2023-02-02T05:23:54.728Z,6.51
2023-02-02T05:26:40.694Z,6.20
2023-02-02T05:29:26.616Z,5.98
2023-02-02T05:32:12.506Z,6.25
2023-02-02T05:34:58.455Z,6.07
2023-02-02T05:37:44.231Z,6.18
2023-02-02T05:40:30.194Z,6.26
2023-02-02T05:43:16.053Z,6.50
2023-02-02T05:46:01.891Z,6.76
2023-02-02T05:48:47.785Z,7.07
2023-02-02T05:51:35.650Z,7.01
2023-02-02T05:54:21.457Z,7.01
2023-02-02T05:57:07.297Z,7.10
2023-02-02T05:59:53.235Z,6.98
2023-02-02T06:02:39.138Z,6.83
2023-02-02T06:05:25.336Z,6.81
2023-02-02T06:08:11.326Z,7.00
2023-02-02T06:10:57.299Z,6.90
2023-02-02T06:13:45.763Z,7.01
2023-02-02T06:16:32.073Z,6.61
2023-02-02T06:19:17.965Z,6.92
2023-02-02T06:22:03.736Z,7.06
2023-02-02T06:24:49.475Z,6.38
2023-02-02T06:27:35.492Z,6.52
2023-02-02T06:30:21.335Z,6.51
2023-02-02T06:33:07.138Z,6.53
2023-02-02T06:35:53.098Z,5.85
2023-02-02T06:38:39.035Z,5.95
2023-02-02T06:41:24.919Z,5.62
2023-02-02T06:44:10.858Z,5.82
2023-02-02T06:46:56.750Z,6.11
2023-02-02T06:49:42.643Z,6.21
2023-02-02T06:52:28.438Z,6.22
2023-02-02T06:55:14.426Z,6.34
2023-02-02T06:58:00.438Z,6.50
2023-02-02T07:00:46.313Z,6.70
2023-02-02T07:03:32.418Z,6.54
2023-02-02T07:06:18.585Z,6.79
2023-02-02T07:09:04.416Z,6.98
2023-02-02T07:11:50.305Z,7.02
2023-02-02T07:14:36.135Z,6.76
2023-02-02T07:17:22.029Z,6.97
2023-02-02T07:20:07.868Z,6.56
2023-02-02T07:22:53.615Z,6.54
2023-02-02T07:25:39.583Z,6.28
2023-02-02T07:28:25.519Z,6.26
2023-02-02T07:31:11.500Z,6.02
2023-02-02T07:33:57.906Z,6.43
2023-02-02T07:36:43.709Z,6.53
2023-02-02T07:39:29.565Z,6.72
2023-02-02T07:42:15.380Z,6.85
2023-02-02T07:45:01.272Z,6.99
2023-02-02T07:48:07.185Z,7.12
2023-02-02T07:50:53.084Z,7.29
2023-02-02T07:53:38.941Z,7.31
2023-02-02T07:56:24.919Z,7.03
2023-02-02T07:59:10.950Z,6.73
2023-02-02T08:01:56.836Z,6.77
2023-02-02T08:04:42.815Z,7.15
2023-02-02T08:07:28.636Z,7.22
2023-02-02T08:10:14.473Z,7.42
2023-02-02T08:13:00.464Z,7.42
2023-02-02T08:15:46.339Z,7.53
2023-02-02T08:18:32.367Z,7.64
2023-02-02T08:21:18.328Z,7.77
2023-02-02T08:24:04.229Z,7.71
2023-02-02T08:26:50.285Z,7.85
2023-02-02T08:29:36.257Z,7.82
2023-02-02T08:32:22.217Z,8.08
2023-02-02T08:35:08.373Z,8.20
2023-02-02T08:37:54.163Z,8.25
2023-02-02T08:40:40.020Z,8.43
2023-02-02T08:43:25.998Z,8.53
2023-02-02T08:46:12.061Z,8.62
2023-02-02T08:48:58.014Z,8.74
2023-02-02T08:51:45.889Z,8.81
2023-02-02T08:54:31.782Z,8.86
2023-02-02T08:57:17.750Z,9.01
2023-02-02T09:00:03.548Z,9.04
2023-02-02T09:02:49.648Z,9.06
2023-02-02T09:05:35.650Z,9.06
2023-02-02T09:08:21.560Z,8.99
2023-02-02T09:11:07.296Z,9.13
2023-02-02T09:13:53.141Z,9.12
2023-02-02T09:16:39.140Z,9.05
2023-02-02T09:19:25.444Z,9.07
2023-02-02T09:22:11.236Z,8.91
2023-02-02T09:24:57.243Z,9.05
2023-02-02T09:27:43.301Z,9.00
2023-02-02T09:30:29.038Z,8.97
2023-02-02T09:33:14.935Z,9.19
2023-02-02T09:36:00.831Z,9.24
2023-02-02T09:38:46.757Z,9.35
2023-02-02T09:41:32.673Z,9.55
2023-02-02T09:44:18.645Z,9.45
2023-02-02T09:47:04.543Z,9.49
2023-02-02T09:49:50.601Z,9.59
2023-02-02T09:52:36.449Z,9.18
2023-02-02T09:55:22.698Z,9.26
2023-02-02T09:58:08.697Z,9.25
2023-02-02T10:00:54.670Z,8.81
2023-02-02T10:03:40.521Z,9.12
2023-02-02T10:06:26.262Z,8.61
2023-02-02T10:09:12.226Z,8.45
2023-02-02T10:11:58.097Z,7.60
2023-02-02T10:14:44.027Z,7.00
2023-02-02T10:17:29.859Z,7.79
2023-02-02T10:20:15.567Z,7.84
2023-02-02T10:23:01.471Z,7.69
2023-02-02T10:25:47.391Z,7.52
2023-02-02T10:28:33.124Z,7.70
2023-02-02T10:31:19.201Z,7.84
2023-02-02T10:34:05.460Z,8.08
2023-02-02T10:36:51.324Z,7.45
2023-02-02T10:39:37.170Z,7.35
2023-02-02T10:42:23.198Z,6.52
2023-02-02T10:45:09.101Z,7.15
2023-02-02T10:47:55.089Z,5.68
2023-02-02T10:50:40.969Z,5.31
2023-02-02T10:53:26.970Z,6.28
2023-02-02T10:56:12.848Z,6.01
2023-02-02T10:58:58.824Z,4.69
2023-02-02T11:01:44.832Z,4.97
2023-02-02T11:04:30.781Z,4.98
2023-02-02T11:07:17.116Z,4.40
2023-02-02T11:10:02.989Z,4.71
2023-02-02T11:12:48.776Z,5.15
2023-02-02T11:15:34.668Z,5.04
2023-02-02T11:18:20.418Z,6.22
2023-02-02T11:21:06.355Z,6.60
2023-02-02T11:23:52.396Z,6.05
2023-02-02T11:26:38.257Z,5.96
2023-02-02T11:29:24.225Z,5.13
2023-02-02T11:32:10.278Z,5.05
2023-02-02T11:34:56.186Z,4.92
2023-02-02T11:37:42.191Z,5.20
2023-02-02T11:40:28.242Z,5.13
2023-02-02T11:43:16.533Z,5.24
2023-02-02T11:46:03.301Z,5.27
2023-02-02T11:48:49.506Z,4.78
2023-02-02T11:51:35.467Z,5.68
2023-02-02T11:54:21.432Z,5.12
2023-02-02T11:57:07.205Z,5.83
2023-02-02T11:59:53.133Z,6.55
2023-02-02T12:02:39.225Z,5.83
2023-02-02T12:05:25.103Z,5.61
2023-02-02T12:08:11.071Z,6.17
2023-02-02T12:10:56.885Z,6.92
2023-02-02T12:13:42.777Z,7.39
2023-02-02T12:16:28.699Z,5.57
2023-02-02T12:19:14.549Z,6.44
2023-02-02T12:22:00.448Z,6.25
2023-02-02T12:24:46.533Z,5.88
2023-02-02T12:27:32.356Z,5.11
2023-02-02T12:30:18.107Z,4.70
2023-02-02T12:33:03.967Z,4.61
2023-02-02T12:35:50.016Z,4.99
2023-02-02T12:38:35.966Z,4.93
2023-02-02T12:41:21.830Z,5.65
2023-02-02T12:44:07.755Z,5.01
2023-02-02T12:46:53.729Z,4.85
2023-02-02T12:49:39.530Z,4.98
2023-02-02T12:52:25.286Z,5.47
2023-02-02T12:55:11.165Z,6.51
2023-02-02T12:57:57.175Z,6.35
2023-02-02T13:00:43.150Z,5.45
2023-02-02T13:03:28.932Z,5.03
2023-02-02T13:06:14.764Z,5.06
2023-02-02T13:09:00.568Z,5.18
2023-02-02T13:11:46.560Z,5.08
2023-02-02T13:14:32.480Z,5.27
2023-02-02T13:17:18.468Z,6.54
2023-02-02T13:20:04.260Z,7.02
2023-02-02T13:22:50.195Z,7.64
2023-02-02T13:25:36.050Z,7.82
2023-02-02T13:28:21.869Z,6.34
2023-02-02T13:31:07.821Z,6.31
2023-02-02T13:33:54.073Z,5.46
2023-02-02T13:36:39.907Z,5.02
2023-02-02T13:39:25.615Z,5.11
2023-02-02T13:42:11.554Z,4.96
2023-02-02T13:44:57.468Z,4.96
2023-02-02T13:47:43.250Z,5.22
2023-02-02T13:50:29.101Z,5.41
2023-02-02T13:53:14.974Z,5.58
2023-02-02T13:56:00.717Z,5.78
2023-02-02T13:58:46.539Z,5.52
2023-02-02T14:01:32.359Z,5.74
2023-02-02T14:04:18.291Z,5.53
2023-02-02T14:07:07.270Z,5.46
2023-02-02T14:09:53.215Z,5.67
2023-02-02T14:12:39.135Z,5.78
2023-02-02T14:15:25.324Z,5.55
2023-02-02T14:18:11.911Z,5.54
2023-02-02T14:20:59.854Z,5.30
2023-02-02T14:23:45.821Z,5.26
2023-02-02T14:26:31.811Z,5.29
2023-02-02T14:29:18.096Z,5.06
2023-02-02T14:32:04.201Z,5.04
2023-02-02T14:34:50.130Z,5.08
2023-02-02T14:37:36.004Z,5.21
2023-02-02T14:40:21.842Z,4.73
2023-02-02T14:43:07.779Z,5.04
2023-02-02T14:45:53.567Z,5.42
2023-02-02T14:48:39.433Z,5.59
2023-02-02T14:51:25.459Z,5.69
2023-02-02T14:54:11.137Z,5.09
2023-02-02T14:56:57.195Z,5.68
2023-02-02T14:59:43.129Z,5.31
2023-02-02T15:02:29.180Z,5.62
2023-02-02T15:05:15.276Z,5.42
2023-02-02T15:08:01.309Z,5.69
2023-02-02T15:10:47.132Z,6.26
2023-02-02T15:13:33.057Z,5.77
2023-02-02T15:16:19.000Z,5.74
2023-02-02T15:19:05.036Z,6.73
2023-02-02T15:21:51.017Z,7.48
2023-02-02T15:24:36.813Z,7.71
2023-02-02T15:27:22.756Z,7.97
2023-02-02T15:30:08.587Z,7.78
2023-02-02T15:32:54.456Z,6.19
2023-02-02T15:35:40.323Z,5.90
2023-02-02T15:38:26.153Z,6.90
2023-02-02T15:41:12.030Z,7.10
2023-02-02T15:43:57.899Z,6.74
2023-02-02T15:46:43.801Z,7.13
2023-02-02T15:49:36.758Z,7.87
2023-02-02T15:52:22.654Z,8.33
2023-02-02T15:55:08.602Z,8.69
2023-02-02T15:57:54.609Z,7.49
2023-02-02T16:00:40.652Z,7.38
2023-02-02T16:03:26.442Z,6.58
2023-02-02T16:06:12.337Z,5.89
2023-02-02T16:08:58.553Z,5.62
2023-02-02T16:11:44.463Z,5.69
2023-02-02T16:14:30.367Z,5.83
2023-02-02T16:17:16.362Z,6.00
2023-02-02T16:20:02.182Z,5.63
2023-02-02T16:22:48.061Z,6.01
2023-02-02T16:25:33.812Z,6.25
2023-02-02T16:28:19.778Z,6.46
2023-02-02T16:31:05.721Z,6.94
2023-02-02T16:33:51.748Z,6.72
2023-02-02T16:36:37.679Z,7.43
2023-02-02T16:39:23.561Z,7.40
2023-02-02T16:42:09.521Z,7.30
2023-02-02T16:44:55.319Z,7.25
2023-02-02T16:47:41.171Z,7.43
2023-02-02T16:50:27.099Z,6.82
2023-02-02T16:53:13.297Z,6.39
2023-02-02T16:55:59.206Z,5.66
2023-02-02T16:58:45.207Z,5.57
2023-02-02T17:01:31.277Z,5.27
2023-02-02T17:04:17.153Z,5.41
2023-02-02T17:07:03.121Z,5.66
2023-02-02T17:09:49.062Z,6.11
2023-02-02T17:12:35.694Z,6.89
2023-02-02T17:15:22.088Z,7.11
2023-02-02T17:18:07.953Z,6.45
2023-02-02T17:20:53.779Z,5.84
2023-02-02T17:23:39.577Z,5.49
2023-02-02T17:26:25.540Z,6.32
2023-02-02T17:29:11.572Z,6.66
2023-02-02T17:31:57.588Z,6.65
2023-02-02T17:34:43.453Z,7.08
2023-02-02T17:37:29.436Z,6.45
2023-02-02T17:40:15.305Z,5.41
2023-02-02T17:43:01.265Z,4.19
2023-02-02T17:45:47.250Z,3.99
2023-02-02T17:48:33.506Z,3.73
2023-02-02T17:51:19.469Z,3.86
2023-02-02T17:54:05.359Z,3.44
2023-02-02T17:56:51.291Z,2.72
2023-02-02T17:59:37.209Z,2.80
2023-02-02T18:02:23.168Z,3.52
2023-02-02T18:05:09.177Z,3.18
2023-02-02T18:07:55.090Z,2.27
2023-02-02T18:10:41.003Z,1.97
2023-02-02T18:13:27.003Z,1.99
2023-02-02T18:16:13.061Z,1.94
2023-02-02T18:19:00.947Z,2.04
2023-02-02T18:21:47.192Z,1.83
2023-02-02T18:24:33.041Z,1.52
2023-02-02T18:27:19.034Z,1.24
2023-02-02T18:30:04.940Z,1.03
2023-02-02T18:32:50.992Z,0.81
2023-02-02T18:35:36.820Z,1.23
2023-02-02T18:38:22.541Z,1.80
2023-02-02T18:41:08.607Z,2.21
2023-02-02T18:43:54.575Z,3.40
2023-02-02T18:46:40.557Z,4.02
2023-02-02T18:49:26.453Z,2.17
2023-02-02T18:52:12.379Z,1.28
2023-02-02T18:54:58.298Z,1.54
2023-02-02T18:57:44.329Z,2.19
2023-02-02T19:00:30.142Z,2.84
2023-02-02T19:03:16.005Z,3.25
2023-02-02T19:06:01.920Z,3.48
2023-02-02T19:08:47.914Z,3.96
2023-02-02T19:11:34.009Z,4.50
2023-02-02T19:14:19.796Z,3.85
2023-02-02T19:17:05.675Z,4.35
2023-02-02T19:19:51.649Z,4.76
2023-02-02T19:22:37.473Z,4.87
2023-02-02T19:25:23.490Z,4.34
2023-02-02T19:28:09.322Z,4.36
2023-02-02T19:30:55.436Z,4.91
2023-02-02T19:33:41.511Z,4.55
2023-02-02T19:36:27.457Z,3.59
2023-02-02T19:39:13.404Z,3.88
2023-02-02T19:41:59.374Z,3.79
2023-02-02T19:44:45.071Z,3.50
2023-02-02T19:47:30.989Z,3.45
2023-02-02T19:50:16.862Z,3.69
2023-02-02T19:53:02.856Z,4.30
2023-02-02T19:55:48.830Z,4.25
2023-02-02T19:58:34.574Z,4.01
2023-02-02T20:01:20.495Z,4.26
2023-02-02T20:04:06.429Z,4.80
2023-02-02T20:06:59.123Z,4.84
2023-02-02T20:09:45.764Z,3.54
2023-02-02T20:12:31.662Z,3.03
2023-02-02T20:15:17.672Z,2.80
2023-02-02T20:18:03.612Z,3.12
2023-02-02T20:20:49.583Z,2.38
2023-02-02T20:23:35.491Z,1.84
2023-02-02T20:26:21.369Z,2.58
2023-02-02T20:29:07.296Z,2.99
2023-02-02T20:31:53.201Z,3.95
2023-02-02T20:34:39.181Z,4.08
2023-02-02T20:37:25.091Z,4.21
2023-02-02T20:40:11.101Z,4.55
2023-02-02T20:42:57.291Z,5.05
2023-02-02T20:45:43.055Z,4.90
2023-02-02T20:48:29.042Z,5.16
2023-02-02T20:51:15.033Z,4.56
2023-02-02T20:54:00.974Z,4.35
2023-02-02T20:56:46.917Z,4.36
2023-02-02T20:59:32.757Z,3.89
2023-02-02T21:02:18.947Z,4.40
2023-02-02T21:05:05.249Z,4.39
2023-02-02T21:07:51.075Z,4.94
2023-02-02T21:10:37.094Z,5.29
2023-02-02T21:13:23.078Z,5.16
2023-02-02T21:16:08.880Z,4.53
2023-02-02T21:18:54.775Z,4.06
2023-02-02T21:21:40.737Z,3.99
2023-02-02T21:24:26.501Z,3.61
2023-02-02T21:27:12.456Z,3.88
2023-02-02T21:29:58.322Z,3.95
2023-02-02T21:32:44.257Z,3.53
2023-02-02T21:35:30.204Z,3.76
2023-02-02T21:38:16.077Z,4.13
2023-02-02T21:41:02.095Z,4.08
2023-02-02T21:43:47.935Z,4.21
2023-02-02T21:46:33.860Z,4.12
2023-02-02T21:49:19.825Z,3.91
2023-02-02T21:52:05.647Z,3.27
2023-02-02T21:54:51.567Z,3.18
2023-02-02T21:57:37.428Z,2.76
2023-02-02T22:00:23.383Z,2.64
2023-02-02T22:03:09.464Z,2.58
2023-02-02T22:05:55.270Z,2.85
2023-02-02T22:08:41.129Z,3.28
2023-02-02T22:11:26.961Z,3.17
2023-02-02T22:14:12.768Z,2.59
2023-02-02T22:16:58.742Z,2.73
2023-02-02T22:19:44.628Z,2.95
2023-02-02T22:22:30.370Z,2.57
2023-02-02T22:25:16.251Z,2.69
2023-02-02T22:28:02.094Z,2.77
2023-02-02T22:30:50.206Z,2.62
2023-02-02T22:33:36.424Z,3.26
2023-02-02T22:36:22.271Z,3.89
2023-02-02T22:39:08.178Z,4.43
2023-02-02T22:41:54.062Z,4.29
2023-02-02T22:44:39.965Z,4.42
2023-02-02T22:47:25.886Z,4.62
2023-02-02T22:50:11.809Z,4.77
2023-02-02T22:52:57.805Z,5.08
2023-02-02T22:55:43.737Z,4.87
2023-02-02T22:58:29.629Z,4.83
2023-02-02T23:01:15.682Z,4.96
2023-02-02T23:04:01.552Z,5.45
2023-02-02T23:06:47.644Z,4.94
2023-02-02T23:09:33.616Z,5.10
2023-02-02T23:12:19.490Z,5.58
2023-02-02T23:15:05.482Z,5.40
2023-02-02T23:17:51.582Z,4.25
2023-02-02T23:20:37.317Z,3.85
2023-02-02T23:23:23.224Z,3.61
2023-02-02T23:26:09.051Z,3.66
2023-02-02T23:28:54.786Z,4.19
2023-02-02T23:31:40.635Z,4.86
2023-02-02T23:34:26.433Z,5.19
2023-02-02T23:37:12.280Z,5.48
2023-02-02T23:39:58.281Z,5.36
2023-02-02T23:42:43.910Z,5.68
2023-02-02T23:45:29.741Z,5.77
2023-02-02T23:48:15.533Z,5.97
2023-02-02T23:51:01.523Z,6.15
2023-02-02T23:53:47.469Z,6.15
2023-02-02T23:56:33.263Z,6.41
2023-02-02T23:59:19.242Z,6.31
